Airfield :
LOGIN :

Register | Disclaimer

   EN    FR    IT 

 










Legend :    VFR   Marginal VFR   IFR   Intensive IFR   Very Intensive IFR
Visi :
Ceiling :
>= 8 km
>= 3000ft
5 to 8 km
1000 to 3000 ft
1500m to 5 km
500 to 1000 ft
800 to 1500m
200 to 500 ft
< 800m
< 200 ft
Symbols :   Thunderstorms  Fog  Heavy snow  Heavy precipitations  Wind > 20 kt
SIGMETs :     Misc.  Thunderstorms  Icing  Turbulence  Mountain Waves  Volcanic Ashes






- Airport Elevation : 0 ft
- AIRPORT CLOSED.


ESKS - Strängnäs Air Base

CURRENT METAR :
  • 032120Z AUTO 18007KT 9999 BKN019/// BKN032/// OVC051/// 13/11 Q1014

EXPIRED METARs :
  • 032050Z AUTO 17008KT 9999 FEW022/// SCT025/// OVC037/// 14/10 Q1014
  • 032020Z AUTO 17007KT 150V200 9999 SCT028/// OVC042/// 14/10 Q1014
  • 031950Z AUTO 17009KT 9999 BKN027/// OVC035/// 14/10 Q1014
  • 031920Z AUTO 18010KT 9999 BKN024/// BKN066/// 14/10 Q1014
  • 031850Z AUTO 18010KT 9999 FEW024/// BKN044/// 14/10 Q1014
  • 031820Z AUTO 17011KT 9999 FEW030/// BKN045/// 15/10 Q1014

Expired Forecast.



MET'MAP, your aeronautical weather chart ! - Copyright ORBIFLY December 2007 - Disclaimer

ORBIFLY MET'MAP TEAM :

Programming & Development : Alexandra Zaïnal
Original concept : Baudouin d'Aumeries
Technical & hardware support : Manuel Goepfert
Assistance : Marc-Olivier Méhu




SOURCES & CREDITS :

   NOAA